Time;durP1;ratioP1;P1;durP2;ratioP2;P2;SDS_P1;SDS_P2;PMS_P1;PMS_P2;Temp;Humidity;BMP_temperature;BMP_pressure;BME280_temperature;BME280_humidity;BME280_pressure;Samples;Min_cycle;Max_cycle;Signal;HPM_P1;HPM_P2
2023/07/26 00:02:06;;;;;;;2.20;2.20;;;;;;;-145.94;64.90;76539.34;5135349;27;20189;-70
2023/07/26 00:04:32;;;;;;;4.00;2.80;;;;;;;-145.94;65.27;76543.41;5135917;27;20176;-70
2023/07/26 00:06:59;;;;;;;2.90;2.90;;;;;;;-145.94;64.85;76549.53;5135223;27;20272;-70
2023/07/26 00:09:26;;;;;;;3.00;2.90;;;;;;;-145.94;65.01;76543.41;5135320;27;20262;-70
2023/07/26 00:11:52;;;;;;;3.17;2.97;;;;;;;-145.94;65.39;76543.41;5135165;27;20651;-70
2023/07/26 00:14:19;;;;;;;2.37;2.37;;;;;;;-145.94;65.43;76541.38;5135470;27;20666;-70
2023/07/26 00:16:45;;;;;;;2.83;2.83;;;;;;;-145.94;65.44;76541.38;5135080;27;20199;-70
2023/07/26 00:19:11;;;;;;;2.57;2.57;;;;;;;-145.94;65.57;76535.25;5135088;27;20184;-70
2023/07/26 00:21:38;;;;;;;2.40;2.40;;;;;;;-145.94;65.29;76531.19;5134727;27;20180;-70
2023/07/26 00:24:05;;;;;;;2.80;2.80;;;;;;;-145.94;65.47;76539.34;5134934;27;20209;-70
2023/07/26 00:26:31;;;;;;;2.43;2.43;;;;;;;-145.94;65.62;76539.34;5134969;27;20191;-70
2023/07/26 00:28:58;;;;;;;2.97;2.87;;;;;;;-145.94;65.72;76539.34;5135078;27;20207;-70
2023/07/26 00:31:25;;;;;;;3.10;2.90;;;;;;;-145.94;65.59;76543.41;5116881;27;20207;-70
2023/07/26 00:33:51;;;;;;;3.20;3.20;;;;;;;-145.94;65.92;76549.53;5134782;27;20694;-70
2023/07/26 00:36:18;;;;;;;2.77;2.77;;;;;;;-145.94;66.05;76541.38;5135353;27;20550;-70
2023/07/26 00:38:45;;;;;;;2.53;2.53;;;;;;;-145.94;66.02;76541.38;5135082;27;20196;-70
2023/07/26 00:41:11;;;;;;;2.80;2.80;;;;;;;-145.94;65.85;76543.41;5134985;27;20188;-70
2023/07/26 00:43:39;;;;;;;3.53;3.53;;;;;;;-145.94;65.92;76545.44;5134617;27;20227;-70
2023/07/26 00:46:06;;;;;;;3.23;3.03;;;;;;;-145.94;65.98;76549.53;5134614;27;20700;-70
2023/07/26 00:48:35;;;;;;;3.60;3.40;;;;;;;-145.94;66.68;76547.50;5134519;27;20208;-70
2023/07/26 00:51:02;;;;;;;3.73;3.63;;;;;;;-145.94;66.26;76547.50;5134830;27;20184;-70
2023/07/26 00:53:29;;;;;;;3.90;3.60;;;;;;;-145.94;66.37;76555.66;5116000;27;20206;-70
2023/07/26 00:55:58;;;;;;;6.67;3.27;;;;;;;-145.94;66.73;76551.56;5134561;27;20203;-70
2023/07/26 00:58:24;;;;;;;3.90;3.90;;;;;;;-145.94;66.66;76549.53;5134449;27;20184;-70
2023/07/26 01:00:51;;;;;;;3.80;3.80;;;;;;;-145.94;66.27;76543.41;5116015;27;20645;-70
2023/07/26 01:03:18;;;;;;;3.57;3.47;;;;;;;-145.94;66.20;76545.44;5115944;27;20621;-70
2023/07/26 01:06:10;;;;;;;3.70;3.60;;;;;;;-145.94;66.45;76539.34;5115943;27;20192;-70
2023/07/26 01:08:38;;;;;;;3.47;3.00;;;;;;;-145.94;66.51;76537.28;5115942;28;20223;-70
2023/07/26 01:11:20;;;;;;;3.60;3.30;;;;;;;-145.94;66.09;76539.34;5134324;28;20172;-70
2023/07/26 01:14:03;;;;;;;3.67;3.60;;;;;;;-145.94;66.00;76541.38;5115834;28;20219;-69
2023/07/26 01:16:30;;;;;;;5.97;3.90;;;;;;;-145.94;66.50;76529.13;5134844;28;20516;-69
2023/07/26 01:18:57;;;;;;;4.17;4.17;;;;;;;-145.94;66.35;76525.06;5134205;28;20200;-69
2023/07/26 01:21:23;;;;;;;4.30;3.93;;;;;;;-145.94;65.90;76525.06;5134587;28;20168;-69
2023/07/26 01:23:50;;;;;;;4.13;3.87;;;;;;;-145.94;66.00;76525.06;5134709;27;20207;-69
2023/07/26 01:26:16;;;;;;;3.80;3.60;;;;;;;-145.94;66.29;76525.06;5134192;28;20669;-69
2023/07/26 01:28:43;;;;;;;4.17;4.17;;;;;;;-145.94;66.47;76516.91;5134063;28;20207;-69
2023/07/26 01:31:11;;;;;;;4.53;4.03;;;;;;;-145.94;66.20;76516.91;5134005;27;20200;-69
2023/07/26 01:33:39;;;;;;;4.83;4.63;;;;;;;-145.94;66.29;76518.94;5118839;27;20289;-69
2023/07/26 01:36:05;;;;;;;4.57;3.97;;;;;;;-145.94;66.46;76523.03;5120412;27;20204;-69
2023/07/26 01:38:33;;;;;;;4.40;4.03;;;;;;;-145.94;66.87;76518.94;5119543;27;20188;-70
2023/07/26 01:41:00;;;;;;;3.57;3.40;;;;;;;-145.94;66.83;76516.91;5119790;27;20184;-70
2023/07/26 01:43:27;;;;;;;3.07;2.97;;;;;;;-145.94;66.68;76514.88;5138373;27;20204;-70
2023/07/26 01:45:54;;;;;;;2.93;2.93;;;;;;;-145.94;66.95;76518.94;5102968;27;20185;-70
2023/07/26 01:48:20;;;;;;;2.93;2.87;;;;;;;-145.94;67.26;76514.88;5138029;27;20212;-70
2023/07/26 01:50:47;;;;;;;3.53;3.53;;;;;;;-145.94;67.08;76514.88;5138002;27;20184;-70
2023/07/26 01:53:13;;;;;;;3.30;3.10;;;;;;;-145.94;67.19;76514.88;5119492;27;20208;-69
2023/07/26 01:55:40;;;;;;;3.93;3.60;;;;;;;-145.94;67.10;76514.88;5138154;27;20216;-69
2023/07/26 01:58:06;;;;;;;3.57;3.50;;;;;;;-145.94;67.40;76508.75;5119451;27;20638;-69
2023/07/26 02:00:33;;;;;;;4.10;4.10;;;;;;;-145.94;67.27;76504.66;5119395;27;20245;-69
2023/07/26 02:02:59;;;;;;;3.77;3.77;;;;;;;-145.94;67.13;76500.59;5138004;27;20552;-69
2023/07/26 02:05:26;;;;;;;4.60;3.80;;;;;;;-145.94;67.06;76500.59;5119355;27;20200;-69
2023/07/26 02:07:52;;;;;;;3.43;3.30;;;;;;;-145.94;67.15;76510.78;5119159;27;20216;-69
2023/07/26 02:10:19;;;;;;;4.63;4.47;;;;;;;-145.94;67.18;76500.59;5119192;27;20192;-69
2023/07/26 02:12:45;;;;;;;4.53;4.43;;;;;;;-145.94;67.45;76504.66;5137773;27;20216;-69
2023/07/26 02:15:12;;;;;;;4.47;4.37;;;;;;;-145.94;67.15;76502.63;5137526;27;20241;-69
2023/07/26 02:17:38;;;;;;;4.90;4.70;;;;;;;-145.94;67.12;76504.66;5137721;27;20195;-69
2023/07/26 02:20:05;;;;;;;7.07;5.10;;;;;;;-145.94;67.62;76516.91;5137401;27;20215;-71
2023/07/26 02:22:32;;;;;;;6.53;4.83;;;;;;;-145.94;68.43;76527.09;5137316;27;20204;-69
2023/07/26 02:24:58;;;;;;;5.43;4.60;;;;;;;-145.94;69.12;76547.50;5118908;27;20193;-70
2023/07/26 02:27:25;;;;;;;8.87;5.23;;;;;;;-145.94;69.43;76559.72;5118916;27;20275;-71
2023/07/26 02:29:51;;;;;;;8.60;6.20;;;;;;;-145.94;69.48;76563.81;5118703;27;20234;-71
2023/07/26 02:32:18;;;;;;;5.83;5.23;;;;;;;-145.94;70.12;76574.00;5119078;27;20212;-71
2023/07/26 02:34:44;;;;;;;5.90;5.37;;;;;;;-145.94;70.40;76576.03;5118726;27;20203;-71
2023/07/26 02:37:11;;;;;;;9.83;5.57;;;;;;;-145.94;70.61;76576.03;5137347;27;20191;-71
2023/07/26 02:39:37;;;;;;;5.73;5.53;;;;;;;-145.94;70.86;76576.03;5137589;27;20185;-71
2023/07/26 02:42:04;;;;;;;5.97;5.57;;;;;;;-145.94;71.16;76571.97;5136942;27;20191;-71
2023/07/26 02:44:32;;;;;;;6.43;5.87;;;;;;;-145.94;70.87;76565.84;5136990;27;20212;-71
2023/07/26 02:46:59;;;;;;;5.70;5.23;;;;;;;-145.94;71.23;76567.88;5118795;27;20234;-71
2023/07/26 02:49:26;;;;;;;5.70;5.20;;;;;;;-145.94;71.26;76563.81;5118360;27;20239;-71
2023/07/26 02:51:52;;;;;;;5.40;5.20;;;;;;;-145.94;71.22;76563.81;5137066;27;20185;-71
2023/07/26 02:54:18;;;;;;;4.77;4.47;;;;;;;-145.94;71.31;76559.72;5137337;27;20185;-71
2023/07/26 02:56:45;;;;;;;4.73;4.53;;;;;;;-145.94;71.05;76557.69;5136716;27;20183;-71
2023/07/26 02:59:11;;;;;;;4.33;4.03;;;;;;;-145.94;70.94;76557.69;5136711;27;20181;-73
2023/07/26 03:01:38;;;;;;;4.40;4.30;;;;;;;-145.94;71.15;76557.69;5118245;27;20188;-71
2023/07/26 03:04:05;;;;;;;4.97;4.87;;;;;;;-145.94;71.40;76561.75;5118038;27;20273;-71
2023/07/26 03:06:31;;;;;;;4.53;4.40;;;;;;;-145.94;71.16;76563.81;5118095;27;20195;-71
2023/07/26 03:08:58;;;;;;;4.40;4.00;;;;;;;-145.94;71.42;76563.81;5136414;27;20209;-71
2023/07/26 03:11:24;;;;;;;3.93;3.73;;;;;;;-145.94;71.09;76565.84;5136436;27;20192;-71
2023/07/26 03:13:51;;;;;;;4.83;4.37;;;;;;;-145.94;70.85;76563.81;5136654;27;20208;-71
2023/07/26 03:16:17;;;;;;;4.23;3.93;;;;;;;-145.94;71.05;76563.81;5117931;27;20241;-71
2023/07/26 03:18:44;;;;;;;4.23;4.10;;;;;;;-145.94;71.07;76565.84;5136852;27;20271;-71
2023/07/26 03:21:11;;;;;;;4.33;4.33;;;;;;;-145.94;71.41;76559.72;5100966;27;20195;-71
2023/07/26 03:23:37;;;;;;;4.90;4.90;;;;;;;-145.94;71.51;76565.84;5117762;27;20219;-71
2023/07/26 03:26:04;;;;;;;4.20;4.10;;;;;;;-145.94;71.27;76563.81;5136158;27;20177;-71
2023/07/26 03:28:30;;;;;;;4.13;3.97;;;;;;;-145.94;71.31;76565.84;5117627;27;20212;-71
2023/07/26 03:30:57;;;;;;;4.47;4.47;;;;;;;-145.94;71.31;76569.91;5117748;27;20200;-71
2023/07/26 03:33:23;;;;;;;4.83;4.73;;;;;;;-145.94;71.42;76569.91;5135923;27;20204;-71
2023/07/26 03:35:50;;;;;;;4.50;4.47;;;;;;;-145.94;71.31;76580.13;5136368;27;20185;-71
2023/07/26 03:38:16;;;;;;;4.37;4.17;;;;;;;-145.94;71.18;76571.97;5117514;27;20191;-71
2023/07/26 03:40:43;;;;;;;3.27;3.07;;;;;;;-145.94;70.98;76584.19;5136122;27;20189;-71
2023/07/26 03:43:09;;;;;;;3.70;3.50;;;;;;;-145.94;71.34;76584.19;5117368;27;20227;-71
2023/07/26 03:45:36;;;;;;;4.07;4.07;;;;;;;-145.94;71.12;76576.03;5135756;27;20191;-71
2023/07/26 03:48:03;;;;;;;6.50;4.43;;;;;;;-145.94;71.64;76571.97;5135861;27;20330;-71
2023/07/26 03:50:29;;;;;;;4.80;4.60;;;;;;;-145.94;71.57;76569.91;5135944;27;20654;-71
2023/07/26 03:52:56;;;;;;;5.00;4.90;;;;;;;-145.94;71.45;76563.81;5135546;27;20208;-71
2023/07/26 03:55:22;;;;;;;4.03;3.93;;;;;;;-145.94;71.87;76567.88;5134909;27;20188;-71
2023/07/26 03:57:49;;;;;;;3.97;3.67;;;;;;;-145.94;71.86;76565.84;5117156;27;20554;-71
2023/07/26 04:00:15;;;;;;;3.60;3.50;;;;;;;-145.94;72.22;76569.91;5136547;27;20501;-71
2023/07/26 04:02:42;;;;;;;3.97;3.87;;;;;;;-145.94;71.97;76569.91;5135876;27;20257;-71
2023/07/26 04:05:09;;;;;;;5.00;3.93;;;;;;;-145.94;72.35;76574.00;5135612;27;20185;-71
2023/07/26 04:07:36;;;;;;;4.93;4.73;;;;;;;-145.94;72.05;76574.00;5117094;27;20564;-71
2023/07/26 04:10:03;;;;;;;4.90;4.63;;;;;;;-145.94;72.20;76569.91;5135167;27;20196;-71
2023/07/26 04:12:30;;;;;;;5.17;4.97;;;;;;;-145.94;72.44;76569.91;5135601;27;20205;-71
2023/07/26 04:14:56;;;;;;;4.53;4.53;;;;;;;-145.94;72.58;76578.06;5135446;27;20714;-71
2023/07/26 04:17:23;;;;;;;4.73;4.63;;;;;;;-145.94;72.18;76578.06;5135106;27;20189;-71
2023/07/26 04:19:51;;;;;;;5.30;4.90;;;;;;;-145.94;72.50;76584.19;5135430;27;20564;-71
2023/07/26 04:22:17;;;;;;;4.77;4.57;;;;;;;-145.94;72.48;76582.16;5135383;27;20209;-71
2023/07/26 04:24:45;;;;;;;5.07;4.87;;;;;;;-145.94;72.68;76584.19;5135297;27;20578;-71
2023/07/26 04:27:12;;;;;;;6.10;5.80;;;;;;;-145.94;72.72;76592.34;5117377;27;20179;-71
2023/07/26 04:29:40;;;;;;;5.70;5.50;;;;;;;-145.94;72.62;76594.38;5134797;27;20212;-71
2023/07/26 04:32:07;;;;;;;7.03;6.50;;;;;;;-145.94;72.87;76596.44;5134757;27;20197;-71
2023/07/26 04:34:34;;;;;;;7.17;6.90;;;;;;;-145.94;72.77;76584.19;5134880;27;20229;-71
2023/07/26 04:37:00;;;;;;;6.67;6.37;;;;;;;-145.94;72.40;76586.22;5135106;27;20207;-71
2023/07/26 04:39:27;;;;;;;6.47;6.17;;;;;;;-145.94;72.89;76582.16;5134787;27;20631;-71
2023/07/26 04:41:53;;;;;;;6.10;5.90;;;;;;;-145.94;72.88;76584.19;5134644;27;20181;-71
2023/07/26 04:44:19;;;;;;;7.03;6.53;;;;;;;-145.94;72.93;76576.03;5134665;27;20184;-71
2023/07/26 04:46:46;;;;;;;7.93;6.93;;;;;;;-145.94;72.57;76580.13;5135225;27;20176;-71
2023/07/26 04:49:13;;;;;;;6.57;5.93;;;;;;;-145.94;72.27;76569.91;5134753;27;20281;-71
2023/07/26 04:51:39;;;;;;;9.97;7.13;;;;;;;-145.94;72.53;76574.00;5134562;27;20191;-71
2023/07/26 04:54:06;;;;;;;7.13;6.63;;;;;;;-145.94;71.88;76571.97;5134439;27;20212;-71
2023/07/26 04:56:32;;;;;;;7.03;6.83;;;;;;;-145.94;72.20;76561.75;5135013;27;20184;-70
2023/07/26 04:58:59;;;;;;;7.40;6.80;;;;;;;-145.94;71.68;76561.75;5134708;27;20230;-70
2023/07/26 05:01:25;;;;;;;6.83;6.63;;;;;;;-145.94;71.75;76557.69;5134482;27;20180;-70
2023/07/26 05:03:52;;;;;;;8.13;7.47;;;;;;;-145.94;71.92;76557.69;5134564;27;20253;-72
2023/07/26 05:06:19;;;;;;;8.47;7.87;;;;;;;-145.94;71.89;76555.66;5116430;27;20259;-72
2023/07/26 05:08:47;;;;;;;8.30;8.00;;;;;;;-145.94;72.30;76553.59;5134221;27;20208;-72
2023/07/26 05:11:14;;;;;;;7.03;6.83;;;;;;;-145.94;72.13;76553.59;5134850;27;20186;-71
2023/07/26 05:13:41;;;;;;;7.40;7.10;;;;;;;-145.94;72.25;76549.53;5134507;27;20586;-71
2023/07/26 05:16:07;;;;;;;5.97;5.87;;;;;;;-145.94;71.91;76553.59;5134765;28;20677;-71
2023/07/26 05:18:34;;;;;;;6.27;6.07;;;;;;;-145.94;71.88;76555.66;5134276;28;20183;-71
2023/07/26 05:21:00;;;;;;;5.97;5.77;;;;;;;-145.94;71.31;76549.53;5134240;28;20241;-71
2023/07/26 05:23:27;;;;;;;6.33;5.10;;;;;;;-145.94;71.20;76549.53;5134089;27;20375;-71
2023/07/26 05:25:53;;;;;;;5.27;5.00;;;;;;;-145.94;71.30;76553.59;5134669;28;20577;-71
2023/07/26 05:28:20;;;;;;;5.63;5.53;;;;;;;-145.94;71.23;76557.69;5134354;28;20184;-71
2023/07/26 05:30:49;;;;;;;4.93;4.73;;;;;;;-145.94;71.15;76553.59;5134014;28;20216;-72
2023/07/26 05:33:16;;;;;;;4.63;4.53;;;;;;;-145.94;70.92;76553.59;5134012;27;20706;-72
2023/07/26 05:35:42;;;;;;;4.70;4.70;;;;;;;-145.94;70.82;76557.69;5134330;28;20547;-72
2023/07/26 05:38:09;;;;;;;4.83;4.70;;;;;;;-145.94;71.16;76559.72;5134302;28;20184;-72
2023/07/26 05:40:35;;;;;;;5.53;5.27;;;;;;;-145.94;71.30;76553.59;5133873;28;20550;-72
2023/07/26 05:43:02;;;;;;;4.70;4.70;;;;;;;-145.94;71.07;76553.59;5134328;27;20209;-72
2023/07/26 05:45:28;;;;;;;4.83;4.70;;;;;;;-145.94;71.23;76549.53;5116008;28;20188;-72
2023/07/26 05:47:55;;;;;;;4.73;4.73;;;;;;;-145.94;71.18;76537.28;5133947;28;20191;-72
2023/07/26 05:50:22;;;;;;;4.73;4.70;;;;;;;-145.94;71.23;76533.22;5133873;28;20623;-72
2023/07/26 05:52:51;;;;;;;5.47;5.10;;;;;;;-145.94;71.50;76516.91;5133780;27;20255;-72
2023/07/26 05:55:18;;;;;;;6.90;5.00;;;;;;;-145.94;71.17;76510.78;5133871;28;20561;-72
2023/07/26 05:57:44;;;;;;;5.13;5.03;;;;;;;-145.94;71.18;76508.75;5133886;28;20189;-72
2023/07/26 06:00:13;;;;;;;5.00;4.90;;;;;;;-145.94;71.16;76498.56;5134127;28;20172;-72
2023/07/26 06:02:40;;;;;;;4.53;4.43;;;;;;;-145.94;71.08;76494.47;5133773;27;20554;-72
2023/07/26 06:05:07;;;;;;;5.90;5.33;;;;;;;-145.94;70.87;76490.41;5133762;28;20192;-72
2023/07/26 06:07:33;;;;;;;5.10;4.70;;;;;;;-145.94;70.05;76486.31;5134100;28;20261;-72
2023/07/26 06:10:00;;;;;;;5.80;5.63;;;;;;;-145.94;69.07;76486.31;5133609;28;20201;-72
2023/07/26 06:12:26;;;;;;;5.27;4.97;;;;;;;-145.94;68.83;76486.31;5133702;27;20212;-72
2023/07/26 06:14:53;;;;;;;6.83;6.17;;;;;;;-145.94;67.86;76490.41;5133722;28;20185;-73
2023/07/26 06:17:19;;;;;;;6.60;6.17;;;;;;;-145.94;67.69;76492.44;5133736;28;20184;-73
2023/07/26 06:19:45;;;;;;;7.10;5.80;;;;;;;-145.94;67.61;76504.66;5136999;27;20241;-73
2023/07/26 06:22:12;;;;;;;6.33;5.80;;;;;;;-145.94;67.15;76492.44;5137559;27;20184;-73
2023/07/26 06:24:39;;;;;;;6.87;6.30;;;;;;;-145.94;66.88;76492.44;5137541;27;20241;-73
2023/07/26 06:27:06;;;;;;;6.87;6.27;;;;;;;-145.94;67.34;76490.41;5137549;27;20180;-74
2023/07/26 06:29:33;;;;;;;6.53;6.23;;;;;;;-145.94;67.64;76490.41;5137090;27;20205;-74
2023/07/26 06:32:00;;;;;;;7.40;6.97;;;;;;;-145.94;67.13;76482.25;5137585;27;20169;-73
2023/07/26 06:34:26;;;;;;;7.53;7.10;;;;;;;-145.94;66.73;76478.16;5137424;27;20552;-73
2023/07/26 06:36:53;;;;;;;8.20;7.30;;;;;;;-145.94;66.88;76465.94;5137275;27;20200;-72
2023/07/26 06:39:20;;;;;;;15.57;7.67;;;;;;;-145.94;65.76;76472.03;5137387;27;20173;-72
2023/07/26 06:41:47;;;;;;;7.47;6.70;;;;;;;-145.94;66.77;76467.97;5137087;27;20196;-73
2023/07/26 06:44:14;;;;;;;7.53;6.87;;;;;;;-145.94;66.17;76453.69;5137157;27;20204;-73
2023/07/26 06:46:40;;;;;;;8.47;7.83;;;;;;;-145.94;65.46;76461.84;5137202;27;20189;-72
2023/07/26 06:49:07;;;;;;;9.13;8.10;;;;;;;-145.94;64.99;76447.56;5137300;27;20566;-72
2023/07/26 06:51:33;;;;;;;8.87;8.20;;;;;;;-145.94;65.20;76439.41;5136884;27;20196;-72
2023/07/26 06:54:00;;;;;;;7.80;7.40;;;;;;;-145.94;65.54;76429.22;5136842;27;20320;-72
2023/07/26 06:56:27;;;;;;;15.80;8.00;;;;;;;-145.94;65.21;76427.19;5136799;27;20188;-72
2023/07/26 06:58:53;;;;;;;9.87;8.93;;;;;;;-145.94;65.37;76406.81;5136712;27;20261;-71
2023/07/26 07:01:20;;;;;;;18.80;8.27;;;;;;;-145.94;64.48;76398.66;5136844;27;20216;-71
2023/07/26 07:03:47;;;;;;;9.37;8.63;;;;;;;-145.94;64.19;76402.72;5136525;27;20208;-71
2023/07/26 07:06:33;;;;;;;9.23;8.33;;;;;;;-145.94;64.30;76394.56;5136904;27;20177;-71
2023/07/26 07:08:59;;;;;;;8.50;7.90;;;;;;;-145.94;63.66;76390.50;5136747;27;20190;-71
2023/07/26 07:11:25;;;;;;;8.63;8.07;;;;;;;-145.94;63.40;76398.66;5136476;27;20204;-71
2023/07/26 07:13:53;;;;;;;8.87;8.03;;;;;;;-145.94;63.31;76384.38;5136387;27;20750;-71
2023/07/26 07:16:19;;;;;;;7.90;7.40;;;;;;;-145.94;63.23;76390.50;5136644;27;20650;-71
2023/07/26 07:18:48;;;;;;;9.90;8.10;;;;;;;-145.94;63.90;76382.34;5136364;27;20182;-71
2023/07/26 07:21:14;;;;;;;8.80;8.10;;;;;;;-145.94;63.65;76384.38;5136368;27;20229;-71
2023/07/26 07:23:41;;;;;;;13.37;7.97;;;;;;;-145.94;63.46;76376.22;5136146;27;20208;-71
2023/07/26 07:26:07;;;;;;;9.00;8.10;;;;;;;-145.94;63.62;76374.19;5136205;27;20188;-71
2023/07/26 07:28:34;;;;;;;8.17;7.47;;;;;;;-145.94;63.18;76372.13;5136719;27;20241;-71
2023/07/26 07:31:00;;;;;;;23.30;8.73;;;;;;;-145.94;63.09;76370.09;5135114;27;20212;-71
2023/07/26 07:33:27;;;;;;;9.23;8.37;;;;;;;-145.94;62.10;76366.03;5136048;27;20224;-71
2023/07/26 07:35:53;;;;;;;8.17;7.70;;;;;;;-145.94;62.74;76366.03;5136306;27;20651;-71
2023/07/26 07:38:20;;;;;;;8.83;8.10;;;;;;;-145.94;62.97;76353.78;5136050;27;20184;-71
2023/07/26 07:40:47;;;;;;;8.97;8.20;;;;;;;-145.94;62.74;76355.81;5136112;27;20189;-71
2023/07/26 07:43:14;;;;;;;10.73;7.63;;;;;;;-145.94;63.09;76345.63;5135891;27;20208;-71
2023/07/26 07:45:43;;;;;;;10.50;8.23;;;;;;;-145.94;62.18;76335.44;5136055;27;20185;-70
2023/07/26 07:48:11;;;;;;;7.40;7.10;;;;;;;-145.94;62.19;76325.25;5136001;27;20267;-71
2023/07/26 07:50:38;;;;;;;18.03;7.53;;;;;;;-145.94;62.32;76300.78;5136164;27;20207;-71
2023/07/26 07:53:05;;;;;;;18.67;8.10;;;;;;;-145.94;61.20;76306.88;5135814;27;20609;-71
2023/07/26 07:55:31;;;;;;;8.17;7.37;;;;;;;-145.94;61.47;76300.78;5135586;27;20271;-71
2023/07/26 07:58:00;;;;;;;7.30;7.03;;;;;;;-145.94;61.00;76294.66;5135533;27;20666;-72
2023/07/26 08:00:27;;;;;;;8.37;7.80;;;;;;;-145.94;60.80;76280.38;5135599;27;20241;-71
2023/07/26 08:02:54;;;;;;;9.77;7.67;;;;;;;-145.94;60.85;76278.34;5135541;27;20217;-71
2023/07/26 08:05:20;;;;;;;10.60;7.80;;;;;;;-145.94;60.41;76282.44;5135637;27;20187;-71
2023/07/26 08:07:50;;;;;;;15.13;7.80;;;;;;;-145.94;60.28;76272.22;5135338;27;20192;-71
2023/07/26 08:10:17;;;;;;;9.50;8.73;;;;;;;-145.94;60.20;76270.19;5135556;27;20322;-71
2023/07/26 08:12:44;;;;;;;9.60;8.63;;;;;;;-145.94;60.19;76251.84;5135192;27;20208;-70
2023/07/26 08:15:10;;;;;;;9.80;8.63;;;;;;;-145.94;60.42;76237.56;5135615;27;20184;-71
2023/07/26 08:17:37;;;;;;;9.17;8.67;;;;;;;-145.94;59.74;76249.81;5135382;27;20538;-71
2023/07/26 08:20:04;;;;;;;8.57;8.13;;;;;;;-145.94;60.03;76239.59;5135698;27;20180;-71
2023/07/26 08:22:31;;;;;;;9.77;9.03;;;;;;;-145.94;58.71;76241.66;5135197;27;20272;-71
2023/07/26 08:24:58;;;;;;;10.83;9.90;;;;;;;-145.94;57.87;76229.41;5135245;27;20189;-71
2023/07/26 08:27:25;;;;;;;11.47;10.83;;;;;;;-145.94;57.43;76221.25;5135135;27;20212;-71
2023/07/26 08:29:51;;;;;;;18.03;10.70;;;;;;;-145.94;57.93;76209.03;5134890;27;20637;-71
2023/07/26 08:32:18;;;;;;;12.70;11.47;;;;;;;-145.94;57.50;76198.81;5134842;27;20211;-71
2023/07/26 08:34:44;;;;;;;12.40;11.33;;;;;;;-145.94;58.59;76174.38;5134806;27;20202;-71
2023/07/26 08:37:11;;;;;;;12.80;11.80;;;;;;;-145.94;57.68;76168.25;5134836;27;20189;-71
2023/07/26 08:39:37;;;;;;;13.07;11.73;;;;;;;-145.94;55.73;76172.31;5135055;27;20242;-71
2023/07/26 08:42:04;;;;;;;12.43;11.20;;;;;;;-145.94;55.67;76168.25;5134673;27;20191;-71
2023/07/26 08:44:33;;;;;;;12.53;10.80;;;;;;;-145.94;56.61;76160.09;5134716;27;20188;-71
2023/07/26 08:47:00;;;;;;;11.13;10.17;;;;;;;-145.94;56.86;76139.69;5134613;27;20214;-71
2023/07/26 08:49:27;;;;;;;12.20;11.40;;;;;;;-145.94;56.42;76135.63;5134553;27;20180;-71
2023/07/26 08:51:55;;;;;;;17.00;10.23;;;;;;;-145.94;56.31;76127.47;5134833;27;20551;-69
2023/07/26 08:54:24;;;;;;;7.70;7.47;;;;;;;-145.94;53.04;76121.34;5134570;27;20187;-71
2023/07/26 08:56:51;;;;;;;10.67;9.97;;;;;;;-145.94;53.43;76117.28;5135018;27;20267;-71
2023/07/26 08:59:18;;;;;;;10.23;9.37;;;;;;;-145.94;53.50;76125.44;5134461;27;20193;-71
2023/07/26 09:01:46;;;;;;;8.27;8.03;;;;;;;-145.94;53.30;76117.28;5134744;27;20192;-71
2023/07/26 09:04:30;;;;;;;10.70;9.83;;;;;;;-145.94;54.28;76109.13;5134719;27;20173;-71
2023/07/26 09:07:00;;;;;;;8.07;7.63;;;;;;;-145.94;53.85;76107.09;5134398;27;20184;-71
2023/07/26 09:09:27;;;;;;;7.27;6.83;;;;;;;-145.94;54.69;76096.88;5134863;27;20180;-72
2023/07/26 09:11:53;;;;;;;6.70;6.50;;;;;;;-145.94;53.47;76094.84;5135146;27;20185;-72
2023/07/26 09:14:28;;;;;;;6.67;6.27;;;;;;;-145.94;53.25;76094.84;5134559;27;20526;-71
2023/07/26 09:16:56;;;;;;;4.43;4.33;;;;;;;-145.94;53.17;76098.94;5134809;27;20622;-71
2023/07/26 09:19:34;;;;;;;4.37;4.37;;;;;;;-145.94;53.29;76137.66;5134229;27;20282;-72
2023/07/26 09:22:04;;;;;;;4.40;4.30;;;;;;;-145.94;54.56;76180.47;5134122;27;20180;-71
2023/07/26 09:24:36;;;;;;;2.80;2.70;;;;;;;-145.94;56.73;76333.41;5134821;28;20188;-71
2023/07/26 09:27:07;;;;;;;2.00;1.90;;;;;;;-145.94;58.64;76488.34;5134405;28;20549;-71
2023/07/26 09:29:35;;;;;;;1.57;1.57;;;;;;;-145.94;61.78;76580.13;5133876;28;20192;-73
2023/07/26 09:32:02;;;;;;;2.20;2.07;;;;;;;-145.94;63.86;76655.56;5134046;27;20187;-74
2023/07/26 09:34:30;;;;;;;2.20;2.20;;;;;;;-145.94;65.65;76675.94;5134613;28;20192;-74
2023/07/26 09:36:57;;;;;;;2.97;2.77;;;;;;;-145.94;66.15;76690.22;5134081;28;20269;-74
2023/07/26 09:39:25;;;;;;;2.90;2.90;;;;;;;-145.94;66.97;76688.19;5134041;28;20200;-74
2023/07/26 09:42:07;;;;;;;2.90;2.80;;;;;;;-145.94;67.73;76690.22;5134802;28;20272;-74
2023/07/26 09:44:34;;;;;;;3.20;3.00;;;;;;;-145.94;67.60;76684.09;5134592;28;20173;-73
2023/07/26 09:47:00;;;;;;;2.53;2.53;;;;;;;-145.94;68.13;76682.06;5134548;28;20270;-73
2023/07/26 09:49:29;;;;;;;2.67;2.57;;;;;;;-145.94;67.88;76680.03;5133952;28;20192;-74
2023/07/26 09:51:58;;;;;;;2.37;2.37;;;;;;;-145.94;68.41;76669.84;5133938;27;20172;-74
2023/07/26 09:54:32;;;;;;;2.30;2.30;;;;;;;-145.94;68.54;76661.69;5137037;27;20221;-74
2023/07/26 09:57:02;;;;;;;2.53;2.43;;;;;;;-145.94;68.37;76653.53;5138282;27;20173;-74
2023/07/26 09:59:29;;;;;;;2.40;2.40;;;;;;;-145.94;68.91;76645.38;5138174;27;20204;-74
2023/07/26 10:02:01;;;;;;;2.60;2.60;;;;;;;-145.94;68.82;76637.22;5137994;27;20272;-74
2023/07/26 10:04:50;;;;;;;2.60;2.60;;;;;;;-145.94;69.20;76622.94;5138153;27;20538;-74
2023/07/26 10:07:17;;;;;;;2.80;2.80;;;;;;;-145.94;69.77;76610.69;5137736;27;20176;-74
2023/07/26 10:09:47;;;;;;;3.27;3.17;;;;;;;-145.94;70.03;76604.59;5138084;27;20635;-74
2023/07/26 10:12:15;;;;;;;2.90;2.80;;;;;;;-145.94;69.98;76584.19;5137550;27;20173;-73
2023/07/26 10:14:42;;;;;;;2.27;2.27;;;;;;;-145.94;70.19;76574.00;5137642;27;20176;-73
2023/07/26 10:17:10;;;;;;;1.83;1.83;;;;;;;-145.94;70.30;76563.81;5137510;27;20198;-73
2023/07/26 10:19:38;;;;;;;1.87;1.87;;;;;;;-145.94;70.04;76547.50;5137508;27;20180;-73
2023/07/26 10:22:07;;;;;;;1.90;1.90;;;;;;;-145.94;70.36;76537.28;5137624;27;20596;-73
2023/07/26 10:24:36;;;;;;;1.60;1.60;;;;;;;-145.94;69.93;76535.25;5137617;27;20189;-73
2023/07/26 10:27:04;;;;;;;3.70;2.20;;;;;;;-145.94;69.90;76533.22;5137626;27;20222;-73
2023/07/26 10:29:31;;;;;;;1.20;1.20;;;;;;;-145.94;69.76;76529.13;5137222;27;20681;-73
2023/07/26 10:32:04;;;;;;;1.60;1.40;;;;;;;-145.94;69.70;76518.94;5137614;27;20257;-73
2023/07/26 10:34:30;;;;;;;2.60;1.50;;;;;;;-145.94;69.61;76508.75;5137797;27;20172;-73
2023/07/26 10:36:57;;;;;;;1.57;1.57;;;;;;;-145.94;69.76;76502.63;5137151;27;20199;-73
2023/07/26 10:39:33;;;;;;;1.60;1.60;;;;;;;-145.94;69.33;76494.47;5137498;27;20258;-73
2023/07/26 10:42:02;;;;;;;2.23;2.23;;;;;;;-145.94;69.52;76484.28;5137335;27;20164;-73
2023/07/26 10:44:29;;;;;;;2.13;2.13;;;;;;;-145.94;69.90;76478.16;5137031;27;20570;-74
2023/07/26 10:47:01;;;;;;;1.90;1.90;;;;;;;-145.94;69.52;76461.84;5137197;27;20181;-74
2023/07/26 10:49:33;;;;;;;2.17;2.17;;;;;;;-145.94;69.59;76459.81;5137231;27;20181;-73
2023/07/26 10:52:02;;;;;;;2.37;2.37;;;;;;;-145.94;70.34;76431.28;5136752;27;20228;-73
2023/07/26 10:54:35;;;;;;;2.00;2.00;;;;;;;-145.94;70.04;76423.13;5137150;27;20553;-73
2023/07/26 10:57:26;;;;;;;2.80;2.80;;;;;;;-145.94;69.62;76404.75;5136793;27;20186;-73
2023/07/26 11:00:18;;;;;;;2.80;2.80;;;;;;;-145.94;69.31;76392.53;5137063;27;20567;-73
2023/07/26 11:02:49;;;;;;;2.73;2.73;;;;;;;-145.94;68.84;76378.25;5136910;27;20196;-73
2023/07/26 11:05:22;;;;;;;3.40;3.10;;;;;;;-145.94;68.67;76370.09;5136837;27;20180;-73
2023/07/26 11:07:49;;;;;;;3.40;3.20;;;;;;;-145.94;68.39;76361.94;5137121;27;20611;-73
2023/07/26 11:10:29;;;;;;;4.63;4.43;;;;;;;-145.94;69.05;76339.50;5136366;27;20208;-73
2023/07/26 11:13:18;;;;;;;5.80;5.70;;;;;;;-145.94;68.58;76331.34;5137033;27;20252;-74
2023/07/26 11:15:50;;;;;;;5.57;5.47;;;;;;;-145.94;68.88;76313.00;5136473;27;20226;-73
2023/07/26 11:18:41;;;;;;;7.27;6.83;;;;;;;-145.94;69.08;76278.34;5136715;27;20541;-73
2023/07/26 11:21:14;;;;;;;8.10;7.43;;;;;;;-145.94;67.97;76266.13;5136902;27;20169;-73